createdAt,value
2023-02-09T00:02:06.899Z,59.54
2023-02-09T00:04:33.799Z,59.33
2023-02-09T00:07:01.016Z,59.22
2023-02-09T00:09:29.713Z,59.28
2023-02-09T00:11:58.056Z,58.83
2023-02-09T00:14:32.460Z,58.46
2023-02-09T00:17:01.562Z,58.75
2023-02-09T00:19:32.297Z,58.78
2023-02-09T00:22:00.253Z,58.13
2023-02-09T00:24:27.045Z,58.09
2023-02-09T00:26:53.783Z,57.72
2023-02-09T00:29:22.693Z,57.78
2023-02-09T00:31:50.758Z,58.13
2023-02-09T00:34:18.132Z,57.86
2023-02-09T00:36:51.173Z,57.80
2023-02-09T00:39:17.965Z,57.98
2023-02-09T00:41:45.043Z,58.03
2023-02-09T00:44:12.597Z,57.66
2023-02-09T00:46:40.755Z,57.95
2023-02-09T00:49:08.180Z,58.00
2023-02-09T00:51:35.133Z,57.83
2023-02-09T00:54:02.236Z,58.11
2023-02-09T00:56:29.055Z,57.93
2023-02-09T00:58:55.834Z,57.89
2023-02-09T01:01:24.227Z,57.88
2023-02-09T01:03:54.186Z,57.93
2023-02-09T01:06:22.255Z,57.78
2023-02-09T01:08:49.230Z,58.09
2023-02-09T01:11:22.647Z,58.42
2023-02-09T01:13:56.565Z,58.31
2023-02-09T01:16:23.709Z,57.85
2023-02-09T01:18:51.174Z,57.98
2023-02-09T01:21:22.044Z,57.86
2023-02-09T01:23:53.446Z,57.77
2023-02-09T01:26:21.316Z,57.75
2023-02-09T01:28:50.057Z,58.27
2023-02-09T01:31:24.159Z,58.02
2023-02-09T01:33:52.104Z,58.50
2023-02-09T01:36:21.376Z,58.32
2023-02-09T01:38:48.305Z,58.37
2023-02-09T01:41:15.457Z,58.23
2023-02-09T01:43:54.760Z,58.57
2023-02-09T01:46:22.838Z,58.93
2023-02-09T01:48:53.434Z,58.75
2023-02-09T01:51:26.271Z,58.94
2023-02-09T01:53:53.210Z,58.66
2023-02-09T01:56:25.961Z,58.54
2023-02-09T01:58:55.834Z,58.67
2023-02-09T02:01:23.908Z,59.24
2023-02-09T02:03:54.027Z,59.33
2023-02-09T02:06:23.804Z,59.14
2023-02-09T02:08:54.357Z,58.92
2023-02-09T02:11:28.829Z,59.72
2023-02-09T02:13:57.097Z,59.45
2023-02-09T02:16:39.329Z,59.41
2023-02-09T02:19:52.940Z,59.82
2023-02-09T02:22:49.244Z,59.64
2023-02-09T02:25:46.747Z,60.03
2023-02-09T02:28:31.652Z,59.61
2023-02-09T02:31:21.877Z,59.90
2023-02-09T02:33:58.030Z,60.20
2023-02-09T02:36:31.570Z,60.15
2023-02-09T02:39:06.949Z,60.55
2023-02-09T02:41:42.298Z,60.24
2023-02-09T02:44:15.997Z,60.36
2023-02-09T02:46:46.279Z,60.57
2023-02-09T02:49:21.036Z,61.04
2023-02-09T02:51:52.601Z,60.49
2023-02-09T02:54:24.740Z,60.69
2023-02-09T02:56:57.259Z,60.24
2023-02-09T02:59:28.437Z,60.57
2023-02-09T03:01:57.856Z,61.47
2023-02-09T03:04:28.372Z,60.58
2023-02-09T03:06:55.193Z,61.00
2023-02-09T03:09:22.486Z,60.80
2023-02-09T03:11:54.782Z,61.17
2023-02-09T03:14:34.489Z,61.02
2023-02-09T03:17:13.532Z,60.77
2023-02-09T03:19:51.221Z,60.97
2023-02-09T03:22:30.107Z,61.30
2023-02-09T03:25:02.500Z,61.12
2023-02-09T03:27:33.685Z,61.26
2023-02-09T03:30:02.413Z,61.16
2023-02-09T03:32:30.942Z,61.04
2023-02-09T03:35:00.005Z,61.41
2023-02-09T03:37:27.129Z,61.68
2023-02-09T03:39:53.973Z,61.63
2023-02-09T03:42:22.441Z,61.56
2023-02-09T03:44:52.057Z,61.81
2023-02-09T03:47:21.276Z,62.13
2023-02-09T03:49:48.050Z,62.10
2023-02-09T03:52:17.444Z,62.16
2023-02-09T03:54:44.886Z,62.41
2023-02-09T03:57:12.159Z,62.30
2023-02-09T03:59:38.995Z,62.12
2023-02-09T04:02:08.793Z,62.92
2023-02-09T04:04:39.412Z,62.19
2023-02-09T04:07:06.512Z,62.80
2023-02-09T04:09:36.136Z,62.98
2023-02-09T04:12:03.209Z,62.94
2023-02-09T04:14:29.942Z,62.95
2023-02-09T04:16:56.649Z,63.22
2023-02-09T04:19:23.465Z,63.25
2023-02-09T04:21:50.660Z,63.56
2023-02-09T04:24:18.006Z,63.25
2023-02-09T04:26:46.214Z,63.24
2023-02-09T04:29:13.098Z,63.72
2023-02-09T04:31:39.838Z,63.30
2023-02-09T04:34:06.595Z,63.79
2023-02-09T04:36:33.756Z,63.79
2023-02-09T04:39:00.583Z,63.68
2023-02-09T04:41:27.732Z,63.78
2023-02-09T04:43:58.124Z,64.61
2023-02-09T04:46:24.930Z,64.15
2023-02-09T04:48:51.684Z,64.65
2023-02-09T04:51:18.498Z,64.53
2023-02-09T04:53:45.335Z,64.36
2023-02-09T04:56:15.318Z,64.39
2023-02-09T04:58:42.425Z,64.46
2023-02-09T05:01:17.988Z,64.42
2023-02-09T05:03:44.983Z,64.51
2023-02-09T05:06:12.308Z,64.46
2023-02-09T05:08:39.132Z,64.58
2023-02-09T05:11:06.335Z,64.29
2023-02-09T05:13:33.404Z,65.06
2023-02-09T05:16:00.217Z,65.28
2023-02-09T05:18:31.496Z,65.18
2023-02-09T05:20:58.256Z,65.13
2023-02-09T05:23:25.306Z,65.21
2023-02-09T05:25:52.025Z,65.86
2023-02-09T05:28:19.279Z,65.25
2023-02-09T05:30:48.066Z,65.37
2023-02-09T05:33:20.305Z,65.14
2023-02-09T05:35:49.079Z,65.94
2023-02-09T05:38:17.017Z,65.96
2023-02-09T05:40:45.256Z,66.18
2023-02-09T05:43:15.714Z,65.46
2023-02-09T05:45:42.596Z,65.85
2023-02-09T05:48:09.375Z,65.93
2023-02-09T05:50:36.212Z,65.84
2023-02-09T05:53:05.693Z,66.19
2023-02-09T05:55:32.793Z,66.33
2023-02-09T05:58:00.899Z,66.09
2023-02-09T06:00:27.663Z,66.37
2023-02-09T06:02:54.359Z,67.09
2023-02-09T06:05:21.586Z,66.95
2023-02-09T06:07:49.789Z,66.36
2023-02-09T06:10:21.813Z,66.85
2023-02-09T06:12:50.608Z,66.69
2023-02-09T06:15:17.576Z,66.57
2023-02-09T06:17:44.389Z,67.23
2023-02-09T06:20:12.337Z,67.70
2023-02-09T06:22:39.049Z,66.73
2023-02-09T06:25:09.941Z,66.92
2023-02-09T06:27:38.204Z,67.70
2023-02-09T06:30:06.078Z,67.82
2023-02-09T06:32:32.925Z,68.29
2023-02-09T06:34:59.702Z,67.29
2023-02-09T06:37:27.188Z,67.61
2023-02-09T06:39:53.959Z,68.19
2023-02-09T06:42:21.720Z,68.72
2023-02-09T06:44:51.990Z,68.86
2023-02-09T06:47:18.950Z,68.67
2023-02-09T06:49:45.759Z,69.41
2023-02-09T06:52:12.661Z,68.94
2023-02-09T06:54:39.405Z,68.91
2023-02-09T06:57:06.311Z,69.36
2023-02-09T06:59:33.176Z,69.82
2023-02-09T07:02:01.485Z,69.93
2023-02-09T07:04:28.723Z,69.49
2023-02-09T07:06:55.491Z,69.99
2023-02-09T07:09:22.271Z,69.81
2023-02-09T07:11:56.050Z,68.98
2023-02-09T07:14:23.368Z,69.66
2023-02-09T07:16:50.874Z,69.70
2023-02-09T07:19:21.796Z,69.64
2023-02-09T07:21:50.606Z,70.55
2023-02-09T07:24:20.157Z,69.99
2023-02-09T07:26:48.688Z,70.42
2023-02-09T07:29:15.861Z,70.27
2023-02-09T07:31:43.144Z,69.88
2023-02-09T07:34:10.418Z,70.33
2023-02-09T07:36:38.727Z,69.95
2023-02-09T07:39:05.758Z,70.33
2023-02-09T07:41:33.328Z,69.91
2023-02-09T07:44:00.097Z,69.80
2023-02-09T07:46:26.969Z,69.52
2023-02-09T07:48:54.264Z,70.52
2023-02-09T07:51:23.188Z,70.14
2023-02-09T07:53:52.829Z,69.96
2023-02-09T07:56:21.057Z,69.97
2023-02-09T07:58:48.269Z,70.28
2023-02-09T08:01:15.368Z,70.01
2023-02-09T08:03:45.865Z,70.23
2023-02-09T08:06:19.477Z,70.14
2023-02-09T08:08:47.278Z,70.10
2023-02-09T08:11:23.668Z,70.04
2023-02-09T08:13:54.140Z,69.83
2023-02-09T08:16:29.227Z,70.50
2023-02-09T08:19:00.107Z,70.00
2023-02-09T08:21:29.402Z,70.16
2023-02-09T08:23:57.879Z,70.29
2023-02-09T08:26:26.444Z,70.09
2023-02-09T08:28:53.758Z,70.05
2023-02-09T08:31:22.624Z,69.69
2023-02-09T08:33:53.262Z,69.76
2023-02-09T08:36:22.806Z,70.07
2023-02-09T08:38:49.731Z,70.06
2023-02-09T08:41:18.540Z,70.17
2023-02-09T08:43:52.059Z,69.66
2023-02-09T08:46:21.854Z,69.72
2023-02-09T08:48:51.051Z,69.52
2023-02-09T08:51:18.686Z,69.73
2023-02-09T08:53:46.168Z,69.89
2023-02-09T08:56:13.137Z,69.73
2023-02-09T08:58:39.949Z,69.91
2023-02-09T09:01:08.302Z,69.88
2023-02-09T09:03:35.167Z,70.09
2023-02-09T09:06:03.743Z,69.97
2023-02-09T09:08:32.482Z,69.89
2023-02-09T09:10:59.820Z,69.75
2023-02-09T09:13:26.756Z,69.59
2023-02-09T09:15:55.644Z,69.74
2023-02-09T09:18:25.987Z,70.16
2023-02-09T09:20:53.166Z,69.78
2023-02-09T09:23:22.225Z,70.11
2023-02-09T09:25:49.865Z,70.02
2023-02-09T09:28:16.819Z,69.40
2023-02-09T09:30:43.937Z,69.82
2023-02-09T09:33:11.088Z,69.97
2023-02-09T09:35:39.473Z,69.52
2023-02-09T09:38:08.409Z,69.88
2023-02-09T09:40:37.204Z,69.76
2023-02-09T09:43:07.971Z,69.98
2023-02-09T09:45:38.657Z,69.83
2023-02-09T09:48:07.118Z,69.90
2023-02-09T09:50:38.495Z,70.19
2023-02-09T09:53:11.281Z,70.17
2023-02-09T09:55:39.239Z,70.38
2023-02-09T09:58:07.645Z,70.28
2023-02-09T10:00:38.556Z,70.20
2023-02-09T10:03:14.124Z,70.67
2023-02-09T10:05:40.959Z,70.43
2023-02-09T10:08:15.625Z,70.53
2023-02-09T10:10:47.813Z,71.56
2023-02-09T10:13:21.184Z,70.99
2023-02-09T10:15:51.287Z,71.17
2023-02-09T10:18:21.052Z,71.30
2023-02-09T10:20:51.046Z,71.45
2023-02-09T10:23:23.199Z,71.47
2023-02-09T10:26:01.175Z,72.54
2023-02-09T10:28:30.886Z,71.61
2023-02-09T10:31:00.880Z,71.90
2023-02-09T10:33:36.933Z,72.03
2023-02-09T10:36:04.546Z,72.52
2023-02-09T10:38:33.766Z,72.16
2023-02-09T10:41:02.121Z,72.28
2023-02-09T10:43:32.151Z,72.41
2023-02-09T10:46:02.645Z,72.75
2023-02-09T10:48:42.799Z,72.67
2023-02-09T10:51:14.795Z,72.82
2023-02-09T10:53:58.377Z,72.79
2023-02-09T10:56:27.444Z,71.66
2023-02-09T10:59:01.063Z,72.45
2023-02-09T11:01:32.099Z,72.77
2023-02-09T11:04:02.236Z,72.88
2023-02-09T11:06:33.634Z,72.90
2023-02-09T11:09:03.335Z,73.66
2023-02-09T11:11:32.688Z,72.98
2023-02-09T11:14:00.167Z,72.61
2023-02-09T11:16:48.747Z,73.97
2023-02-09T11:19:29.610Z,73.42
2023-02-09T11:22:06.208Z,73.39
2023-02-09T11:25:02.283Z,73.72
2023-02-09T11:27:42.548Z,74.37
2023-02-09T11:30:20.682Z,74.07
2023-02-09T11:32:52.485Z,73.72
2023-02-09T11:35:22.640Z,75.23
2023-02-09T11:38:01.671Z,74.66
2023-02-09T11:40:36.383Z,74.82
2023-02-09T11:43:14.724Z,74.35
2023-02-09T11:45:46.511Z,74.26
2023-02-09T11:48:21.023Z,74.75
2023-02-09T11:51:03.218Z,74.10
2023-02-09T11:53:38.519Z,74.94
2023-02-09T11:56:10.888Z,75.23
2023-02-09T11:58:47.236Z,75.70
2023-02-09T12:01:41.251Z,75.94
2023-02-09T12:04:17.797Z,75.83
2023-02-09T12:06:48.381Z,75.51
2023-02-09T12:09:22.794Z,75.98
2023-02-09T12:12:02.459Z,75.25
2023-02-09T12:14:46.189Z,75.76
2023-02-09T12:17:17.445Z,76.07
2023-02-09T12:19:44.991Z,77.76
2023-02-09T12:22:50.807Z,76.60
2023-02-09T12:25:21.462Z,76.83
2023-02-09T12:28:13.456Z,77.18
2023-02-09T12:30:58.995Z,77.43
2023-02-09T12:33:29.281Z,77.14
2023-02-09T12:36:01.592Z,77.23
2023-02-09T12:39:04.578Z,77.88
2023-02-09T12:42:10.393Z,78.25
2023-02-09T12:44:53.456Z,78.77
2023-02-09T12:47:56.594Z,78.41
2023-02-09T12:50:32.357Z,77.27
2023-02-09T12:53:32.280Z,78.33
2023-02-09T12:56:01.771Z,77.98
2023-02-09T12:58:38.139Z,78.06
2023-02-09T13:01:06.841Z,78.25
2023-02-09T13:03:42.946Z,78.08
2023-02-09T13:06:28.743Z,78.48
2023-02-09T13:08:58.595Z,78.52
2023-02-09T13:11:33.845Z,78.15
2023-02-09T13:14:09.581Z,79.26
2023-02-09T13:16:54.774Z,78.64
2023-02-09T13:19:59.038Z,79.33
2023-02-09T13:22:33.100Z,79.17
2023-02-09T13:25:09.192Z,79.60
2023-02-09T13:27:44.309Z,79.47
2023-02-09T13:30:24.214Z,79.17
2023-02-09T13:33:04.161Z,78.90
2023-02-09T13:35:34.693Z,79.06
2023-02-09T13:38:14.584Z,79.02
2023-02-09T13:40:46.469Z,79.63
2023-02-09T13:43:21.771Z,79.50
2023-02-09T13:45:51.076Z,79.64
2023-02-09T13:48:24.780Z,79.00
2023-02-09T13:50:56.136Z,79.88
2023-02-09T13:53:24.758Z,82.32
2023-02-09T13:55:53.190Z,80.33
2023-02-09T13:58:22.383Z,80.64
2023-02-09T14:00:52.890Z,79.94
2023-02-09T14:03:28.240Z,80.75
2023-02-09T14:05:59.298Z,81.36
2023-02-09T14:08:28.966Z,80.63
2023-02-09T14:11:03.111Z,80.73
2023-02-09T14:13:34.282Z,81.58
2023-02-09T14:16:03.277Z,82.05
2023-02-09T14:18:41.384Z,81.80
2023-02-09T14:21:17.373Z,82.85
2023-02-09T14:23:48.952Z,82.65
2023-02-09T14:26:23.415Z,82.71
2023-02-09T14:28:54.619Z,82.99
2023-02-09T14:31:23.409Z,83.44
2023-02-09T14:33:55.390Z,82.93
2023-02-09T14:36:25.788Z,82.69
2023-02-09T14:39:03.542Z,83.25
2023-02-09T14:41:32.588Z,82.56
2023-02-09T14:44:02.168Z,83.29
2023-02-09T14:46:45.561Z,83.17
2023-02-09T14:49:14.294Z,83.58
2023-02-09T14:51:41.440Z,82.70
2023-02-09T14:54:22.120Z,83.21
2023-02-09T14:56:49.260Z,83.52
2023-02-09T14:59:17.459Z,83.63
2023-02-09T15:01:44.502Z,83.54
2023-02-09T15:04:11.173Z,84.28
2023-02-09T15:06:40.177Z,83.77
2023-02-09T15:09:07.358Z,84.41
2023-02-09T15:11:34.244Z,84.30
2023-02-09T15:14:04.084Z,84.01
2023-02-09T15:16:31.315Z,84.44
2023-02-09T15:19:00.948Z,83.66
2023-02-09T15:21:28.737Z,84.53
2023-02-09T15:23:56.882Z,84.89
2023-02-09T15:26:23.526Z,84.71
2023-02-09T15:28:50.745Z,85.35
2023-02-09T15:31:17.736Z,84.83
2023-02-09T15:33:47.012Z,84.69
2023-02-09T15:36:19.951Z,84.77
2023-02-09T15:38:46.859Z,85.04
2023-02-09T15:41:15.244Z,85.08
2023-02-09T15:43:42.164Z,85.08
2023-02-09T15:46:11.598Z,85.16
2023-02-09T15:48:40.508Z,84.92
2023-02-09T15:51:07.743Z,85.91
2023-02-09T15:53:36.717Z,85.75
2023-02-09T15:56:04.864Z,86.57
2023-02-09T15:58:36.265Z,86.88
2023-02-09T16:01:03.287Z,86.19
2023-02-09T16:03:30.642Z,85.41
2023-02-09T16:06:02.120Z,86.36
2023-02-09T16:08:29.564Z,87.70
2023-02-09T16:10:57.427Z,86.12
2023-02-09T16:13:24.364Z,86.42
2023-02-09T16:15:53.122Z,86.38
2023-02-09T16:18:19.893Z,86.17
2023-02-09T16:20:51.438Z,87.27
2023-02-09T16:23:21.785Z,87.41
2023-02-09T16:25:51.590Z,87.25
2023-02-09T16:28:21.546Z,87.15
2023-02-09T16:30:54.107Z,86.75
2023-02-09T16:33:21.862Z,88.03
2023-02-09T16:35:53.387Z,87.54
2023-02-09T16:38:21.864Z,89.22
2023-02-09T16:40:52.457Z,89.75
2023-02-09T16:43:20.500Z,89.96
2023-02-09T16:46:01.126Z,89.48
2023-02-09T16:48:33.414Z,90.61
2023-02-09T16:51:00.472Z,89.31
2023-02-09T16:53:32.895Z,89.79
2023-02-09T16:56:00.132Z,90.41
2023-02-09T16:58:28.114Z,90.42
2023-02-09T17:00:54.931Z,90.17
2023-02-09T17:03:26.167Z,89.99
2023-02-09T17:05:58.586Z,89.83
2023-02-09T17:08:27.317Z,90.25
2023-02-09T17:10:56.710Z,90.27
2023-02-09T17:13:24.175Z,90.63
2023-02-09T17:15:53.278Z,91.16
2023-02-09T17:18:22.858Z,91.05
2023-02-09T17:20:53.906Z,91.27
2023-02-09T17:23:27.911Z,92.01
2023-02-09T17:25:55.133Z,92.23
2023-02-09T17:28:25.396Z,92.15
2023-02-09T17:30:58.103Z,91.84
2023-02-09T17:33:26.994Z,91.38
2023-02-09T17:38:45.973Z,91.42
2023-02-09T17:41:15.885Z,92.17
2023-02-09T17:43:45.922Z,92.11
2023-02-09T17:46:13.221Z,92.09
2023-02-09T17:48:42.364Z,91.40
2023-02-09T17:51:19.778Z,92.69
2023-02-09T17:53:48.675Z,92.76
2023-02-09T17:56:16.719Z,93.72
2023-02-09T17:58:45.308Z,93.62
2023-02-09T18:01:24.753Z,93.82
2023-02-09T18:03:54.034Z,93.04
2023-02-09T18:06:25.116Z,93.70
2023-02-09T18:08:53.676Z,93.66
2023-02-09T18:11:39.577Z,93.95
2023-02-09T18:14:06.604Z,93.51
2023-02-09T18:16:33.394Z,93.51
2023-02-09T18:19:00.169Z,93.19
2023-02-09T18:21:27.295Z,93.66
2023-02-09T18:23:56.059Z,93.26
2023-02-09T18:26:23.874Z,93.19
2023-02-09T18:28:51.256Z,93.29
2023-02-09T18:31:18.428Z,93.77
2023-02-09T18:33:51.824Z,93.51
2023-02-09T18:36:18.771Z,94.34
2023-02-09T18:38:48.591Z,93.98
2023-02-09T18:41:17.372Z,94.07
2023-02-09T18:43:44.722Z,94.33
2023-02-09T18:46:14.061Z,93.84
2023-02-09T18:48:41.758Z,94.47
2023-02-09T18:51:09.717Z,93.94
2023-02-09T18:53:37.454Z,93.66
2023-02-09T18:56:06.881Z,94.64
2023-02-09T18:58:37.293Z,94.63
2023-02-09T19:01:09.854Z,94.44
2023-02-09T19:03:37.132Z,94.88
2023-02-09T19:06:04.031Z,94.51
2023-02-09T19:08:30.778Z,94.70
2023-02-09T19:10:58.184Z,94.67
2023-02-09T19:13:24.937Z,94.59
2023-02-09T19:15:55.327Z,93.75
2023-02-09T19:18:25.199Z,94.55
2023-02-09T19:20:52.259Z,95.00
2023-02-09T19:23:22.974Z,94.66
2023-02-09T19:25:50.710Z,94.75
2023-02-09T19:28:17.535Z,94.42
2023-02-09T19:30:44.698Z,94.78
2023-02-09T19:33:13.455Z,94.52
2023-02-09T19:35:42.910Z,94.96
2023-02-09T19:38:09.667Z,94.60
2023-02-09T19:40:36.929Z,94.54
2023-02-09T19:43:04.580Z,95.14
2023-02-09T19:45:32.439Z,94.69
2023-02-09T19:47:59.312Z,94.69
2023-02-09T19:50:30.643Z,95.64
2023-02-09T19:52:58.116Z,96.70
2023-02-09T19:55:25.345Z,95.46
2023-02-09T19:57:52.130Z,95.61
2023-02-09T20:00:21.839Z,95.20
2023-02-09T20:02:51.843Z,94.75
2023-02-09T20:05:19.275Z,94.88
2023-02-09T20:07:48.066Z,94.76
2023-02-09T20:10:15.513Z,94.68
2023-02-09T20:15:14.769Z,95.11
2023-02-09T20:17:41.649Z,95.17
2023-02-09T20:20:09.054Z,95.10
2023-02-09T20:22:35.986Z,95.27
2023-02-09T20:25:05.245Z,95.58
2023-02-09T20:27:32.426Z,95.65
2023-02-09T20:29:59.638Z,95.72
2023-02-09T20:32:28.024Z,96.09
2023-02-09T20:34:55.078Z,95.87
2023-02-09T20:37:22.223Z,95.81
2023-02-09T20:39:51.625Z,95.87
2023-02-09T20:42:23.654Z,96.40
2023-02-09T20:44:51.355Z,96.52
2023-02-09T20:47:18.844Z,96.20
2023-02-09T20:49:46.119Z,96.17
2023-02-09T20:52:21.776Z,96.24
2023-02-09T20:54:48.411Z,96.59
2023-02-09T20:57:15.258Z,97.31
2023-02-09T20:59:45.746Z,96.62
2023-02-09T21:02:13.817Z,97.26
2023-02-09T21:04:40.746Z,97.52
2023-02-09T21:07:07.625Z,97.71
2023-02-09T21:09:34.455Z,97.51
2023-02-09T21:12:01.862Z,97.72
2023-02-09T21:14:41.191Z,97.87
2023-02-09T21:17:11.026Z,98.01
2023-02-09T21:19:39.823Z,97.84
2023-02-09T21:22:08.009Z,97.79
2023-02-09T21:24:36.434Z,98.73
2023-02-09T21:27:04.207Z,98.35
2023-02-09T21:29:31.372Z,98.51
2023-02-09T21:32:01.307Z,98.13
2023-02-09T21:34:30.500Z,97.88
2023-02-09T21:36:58.473Z,97.74
2023-02-09T21:39:25.334Z,98.90
2023-02-09T21:41:52.109Z,98.73
2023-02-09T21:44:21.522Z,98.42
2023-02-09T21:46:49.200Z,98.43
2023-02-09T21:49:16.243Z,98.78
2023-02-09T21:51:45.038Z,98.91
2023-02-09T21:54:14.050Z,98.83
2023-02-09T21:56:40.878Z,98.79
2023-02-09T21:59:07.872Z,97.87
2023-02-09T22:01:34.685Z,98.39
2023-02-09T22:04:01.986Z,98.31
2023-02-09T22:06:30.189Z,98.46
2023-02-09T22:08:58.795Z,98.73
2023-02-09T22:11:25.552Z,98.34
2023-02-09T22:13:52.253Z,97.92
2023-02-09T22:16:21.067Z,98.79
2023-02-09T22:18:48.206Z,99.52
2023-02-09T22:21:14.922Z,98.82
2023-02-09T22:23:41.882Z,99.25
2023-02-09T22:26:11.450Z,99.49
2023-02-09T22:28:38.265Z,99.91
2023-02-09T22:31:05.848Z,99.64
2023-02-09T22:33:40.781Z,99.12
2023-02-09T22:36:11.089Z,98.74
2023-02-09T22:38:37.956Z,99.55
2023-02-09T22:41:06.071Z,98.90
2023-02-09T22:43:34.995Z,98.82
2023-02-09T22:46:01.762Z,98.37
2023-02-09T22:48:29.118Z,98.60
2023-02-09T22:50:55.847Z,98.62
2023-02-09T22:53:22.610Z,98.47
2023-02-09T22:55:58.137Z,98.37
2023-02-09T22:58:25.216Z,98.40
2023-02-09T23:00:53.863Z,98.92
2023-02-09T23:03:23.483Z,98.52
2023-02-09T23:05:51.277Z,98.61
2023-02-09T23:08:18.021Z,98.64
2023-02-09T23:10:44.769Z,98.42
2023-02-09T23:13:11.823Z,98.47
2023-02-09T23:15:38.630Z,98.97
2023-02-09T23:18:06.803Z,98.91
2023-02-09T23:20:33.556Z,98.75
2023-02-09T23:23:00.333Z,98.17
2023-02-09T23:25:28.461Z,98.33
2023-02-09T23:27:55.548Z,98.18
2023-02-09T23:30:22.298Z,98.22
2023-02-09T23:32:49.350Z,98.27
2023-02-09T23:35:18.094Z,98.47
2023-02-09T23:37:44.810Z,98.28
2023-02-09T23:40:12.103Z,98.35
2023-02-09T23:42:38.865Z,98.66
2023-02-09T23:45:06.477Z,98.86
2023-02-09T23:47:33.233Z,98.49
2023-02-09T23:50:00.253Z,98.39
2023-02-09T23:52:28.617Z,98.36
2023-02-09T23:54:56.124Z,98.18
2023-02-09T23:57:22.852Z,98.76
2023-02-09T23:59:49.738Z,98.79
